createdAt,value
2023-02-08T00:01:25.780Z,13.97
2023-02-08T00:03:53.672Z,14.13
2023-02-08T00:06:21.605Z,15.80
2023-02-08T00:08:49.504Z,13.87
2023-02-08T00:11:17.338Z,13.77
2023-02-08T00:13:45.345Z,15.40
2023-02-08T00:16:14.485Z,14.13
2023-02-08T00:18:42.432Z,14.17
2023-02-08T00:21:16.993Z,12.60
2023-02-08T00:23:45.676Z,12.80
2023-02-08T00:26:16.567Z,13.37
2023-02-08T00:28:47.391Z,14.10
2023-02-08T00:31:15.200Z,14.40
2023-02-08T00:33:43.068Z,13.30
2023-02-08T00:36:12.017Z,12.83
2023-02-08T00:38:39.855Z,13.37
2023-02-08T00:41:07.829Z,13.83
2023-02-08T00:43:35.865Z,11.97
2023-02-08T00:46:04.368Z,12.47
2023-02-08T00:48:33.788Z,14.33
2023-02-08T00:51:08.998Z,12.53
2023-02-08T00:53:41.361Z,12.90
2023-02-08T00:56:10.438Z,13.73
2023-02-08T00:58:38.455Z,12.73
2023-02-08T01:01:07.523Z,13.77
2023-02-08T01:03:37.515Z,12.77
2023-02-08T01:06:07.914Z,13.13
2023-02-08T01:08:36.773Z,13.93
2023-02-08T01:11:26.818Z,13.57
2023-02-08T01:13:57.507Z,15.20
2023-02-08T01:16:28.870Z,12.83
2023-02-08T01:18:58.404Z,13.17
2023-02-08T01:21:38.560Z,13.97
2023-02-08T01:24:10.635Z,12.83
2023-02-08T01:26:41.480Z,13.20
2023-02-08T01:29:11.098Z,13.17
2023-02-08T01:31:40.409Z,13.40
2023-02-08T01:34:11.767Z,13.33
2023-02-08T01:36:39.994Z,13.00
2023-02-08T01:39:13.094Z,14.40
2023-02-08T01:41:46.555Z,13.50
2023-02-08T01:44:15.246Z,13.97
2023-02-08T01:46:48.795Z,14.23
2023-02-08T01:49:44.682Z,14.30
2023-02-08T01:52:17.554Z,13.77
2023-02-08T01:54:53.280Z,15.07
2023-02-08T01:57:25.104Z,13.93
2023-02-08T01:59:58.246Z,13.47
2023-02-08T02:02:30.886Z,12.70
2023-02-08T02:04:58.852Z,13.40
2023-02-08T02:07:40.802Z,13.30
2023-02-08T02:10:23.718Z,13.23
2023-02-08T02:12:52.590Z,13.10
2023-02-08T02:15:20.337Z,14.77
2023-02-08T02:17:51.778Z,13.57
2023-02-08T02:20:55.038Z,13.33
2023-02-08T02:23:34.591Z,14.07
2023-02-08T02:26:14.667Z,12.40
2023-02-08T02:28:57.148Z,12.63
2023-02-08T02:31:34.895Z,13.23
2023-02-08T02:34:16.947Z,13.73
2023-02-08T02:36:53.411Z,13.60
2023-02-08T02:39:36.282Z,12.53
2023-02-08T02:42:32.523Z,13.43
2023-02-08T02:45:35.825Z,13.17
2023-02-08T02:48:17.628Z,14.97
2023-02-08T02:50:55.479Z,14.03
2023-02-08T02:53:41.969Z,12.93
2023-02-08T02:56:15.463Z,13.30
2023-02-08T02:58:44.697Z,15.30
2023-02-08T03:01:13.393Z,13.23
2023-02-08T03:03:43.064Z,12.70
2023-02-08T03:06:16.321Z,12.47
2023-02-08T03:09:24.965Z,12.83
2023-02-08T03:12:24.781Z,14.73
2023-02-08T03:15:10.652Z,13.20
2023-02-08T03:18:16.920Z,13.57
2023-02-08T03:20:56.797Z,13.03
2023-02-08T03:23:58.926Z,12.80
2023-02-08T03:26:52.956Z,13.27
2023-02-08T03:30:25.316Z,13.83
2023-02-08T03:33:06.732Z,13.07
2023-02-08T03:35:44.759Z,12.97
2023-02-08T03:38:22.477Z,12.70
2023-02-08T03:40:53.129Z,13.53
2023-02-08T03:43:47.984Z,13.00
2023-02-08T03:46:30.914Z,13.23
2023-02-08T03:49:07.517Z,12.73
2023-02-08T03:51:39.034Z,13.53
2023-02-08T03:54:15.905Z,12.70
2023-02-08T03:56:56.108Z,12.90
2023-02-08T03:59:31.349Z,12.30
2023-02-08T04:02:05.625Z,12.50
2023-02-08T04:04:41.068Z,13.23
2023-02-08T04:07:12.102Z,12.97
2023-02-08T04:09:39.844Z,12.53
2023-02-08T04:12:07.713Z,13.00
2023-02-08T04:14:38.139Z,13.03
2023-02-08T04:17:05.973Z,12.73
2023-02-08T04:19:33.705Z,12.70
2023-02-08T04:22:01.392Z,12.37
2023-02-08T04:24:29.065Z,12.70
2023-02-08T04:26:56.901Z,12.10
2023-02-08T04:29:29.812Z,12.43
2023-02-08T04:31:57.492Z,12.33
2023-02-08T04:34:27.973Z,12.20
2023-02-08T04:36:55.651Z,12.33
2023-02-08T04:39:23.338Z,12.17
2023-02-08T04:41:51.155Z,11.57
2023-02-08T04:44:18.846Z,15.50
2023-02-08T04:46:46.506Z,31.13
2023-02-08T04:49:14.241Z,18.60
2023-02-08T04:51:43.835Z,20.47
2023-02-08T04:54:11.645Z,14.93
2023-02-08T04:56:42.097Z,14.50
2023-02-08T04:59:09.867Z,12.53
2023-02-08T05:01:37.629Z,12.40
2023-02-08T05:04:07.543Z,12.13
2023-02-08T05:06:35.269Z,13.07
2023-02-08T05:09:03.821Z,12.57
2023-02-08T05:11:31.643Z,12.50
2023-02-08T05:13:59.477Z,12.67
2023-02-08T05:16:27.194Z,11.93
2023-02-08T05:18:57.782Z,11.83
2023-02-08T05:21:29.512Z,12.47
2023-02-08T05:23:59.942Z,12.03
2023-02-08T05:26:57.504Z,11.33
2023-02-08T05:29:31.692Z,11.40
2023-02-08T05:32:02.320Z,12.10
2023-02-08T05:34:44.837Z,11.63
2023-02-08T05:37:15.099Z,11.10
2023-02-08T05:39:48.157Z,11.93
2023-02-08T05:42:16.369Z,10.83
2023-02-08T05:44:46.501Z,12.10
2023-02-08T05:47:20.731Z,12.53
2023-02-08T05:49:51.074Z,11.77
2023-02-08T05:52:25.212Z,11.83
2023-02-08T05:54:55.303Z,11.30
2023-02-08T05:57:25.579Z,11.40
2023-02-08T05:59:56.014Z,10.77
2023-02-08T06:02:27.285Z,11.53
2023-02-08T06:05:01.789Z,11.73
2023-02-08T06:07:30.289Z,10.77
2023-02-08T06:10:01.272Z,10.67
2023-02-08T06:12:32.434Z,11.60
2023-02-08T06:15:02.373Z,10.97
2023-02-08T06:17:32.237Z,10.53
2023-02-08T06:19:59.823Z,12.10
2023-02-08T06:22:27.531Z,11.67
2023-02-08T06:24:55.132Z,11.83
2023-02-08T06:27:25.655Z,12.37
2023-02-08T06:29:53.481Z,12.83
2023-02-08T06:32:21.216Z,14.77
2023-02-08T06:34:50.662Z,15.90
2023-02-08T06:37:18.960Z,15.50
2023-02-08T06:39:46.650Z,14.10
2023-02-08T06:42:14.436Z,14.63
2023-02-08T06:44:54.093Z,14.27
2023-02-08T06:47:26.160Z,14.97
2023-02-08T06:49:54.527Z,14.37
2023-02-08T06:52:22.257Z,13.63
2023-02-08T06:54:53.953Z,13.37
2023-02-08T06:57:21.535Z,12.90
2023-02-08T06:59:49.153Z,12.07
2023-02-08T07:02:20.127Z,13.03
2023-02-08T07:04:51.117Z,12.90
2023-02-08T07:07:19.306Z,13.13
2023-02-08T07:09:46.958Z,13.77
2023-02-08T07:12:14.631Z,12.20
2023-02-08T07:14:44.038Z,12.03
2023-02-08T07:17:13.266Z,14.80
2023-02-08T07:19:40.925Z,13.10
2023-02-08T07:22:08.566Z,13.80
2023-02-08T07:24:37.993Z,15.40
2023-02-08T07:27:07.322Z,14.10
2023-02-08T07:29:35.074Z,15.17
2023-02-08T07:32:04.406Z,14.50
2023-02-08T07:34:34.484Z,19.60
2023-02-08T07:37:11.099Z,14.70
2023-02-08T07:39:38.699Z,15.80
2023-02-08T07:42:07.731Z,15.30
2023-02-08T07:44:38.010Z,14.73
2023-02-08T07:47:06.632Z,13.47
2023-02-08T07:49:34.799Z,14.60
2023-02-08T07:52:03.117Z,19.23
2023-02-08T07:54:30.992Z,12.77
2023-02-08T07:57:03.670Z,13.43
2023-02-08T07:59:31.413Z,13.73
2023-02-08T08:01:59.097Z,12.60
2023-02-08T08:04:26.703Z,12.00
2023-02-08T08:06:54.283Z,11.57
2023-02-08T08:09:22.024Z,12.67
2023-02-08T08:11:52.116Z,12.37
2023-02-08T08:14:19.757Z,12.53
2023-02-08T08:16:47.417Z,15.63
2023-02-08T08:19:15.004Z,13.30
2023-02-08T08:21:42.545Z,12.97
2023-02-08T08:24:10.639Z,11.67
2023-02-08T08:26:41.061Z,12.23
2023-02-08T08:29:08.626Z,13.63
2023-02-08T08:31:36.818Z,12.97
2023-02-08T08:34:04.492Z,13.70
2023-02-08T08:36:32.144Z,12.40
2023-02-08T08:38:59.733Z,11.10
2023-02-08T08:41:28.220Z,11.47
2023-02-08T08:43:58.655Z,11.73
2023-02-08T08:46:29.153Z,13.90
2023-02-08T08:48:56.725Z,11.37
2023-02-08T08:51:24.255Z,13.43
2023-02-08T08:53:52.603Z,12.03
2023-02-08T08:56:20.348Z,15.27
2023-02-08T08:58:47.897Z,11.47
2023-02-08T09:01:15.649Z,13.37
2023-02-08T09:03:43.347Z,11.00
2023-02-08T09:06:10.977Z,12.80
2023-02-08T09:08:38.672Z,12.93
2023-02-08T09:11:11.661Z,12.97
2023-02-08T09:13:39.584Z,15.23
2023-02-08T09:16:13.695Z,22.00
2023-02-08T09:18:41.791Z,14.50
2023-02-08T09:21:13.972Z,12.17
2023-02-08T09:23:41.657Z,21.30
2023-02-08T09:26:13.873Z,13.77
2023-02-08T09:28:42.023Z,12.07
2023-02-08T09:31:09.618Z,14.53
2023-02-08T09:33:37.608Z,25.07
2023-02-08T09:36:05.614Z,15.83
2023-02-08T09:38:34.663Z,16.13
2023-02-08T09:41:26.971Z,21.33
2023-02-08T09:44:00.882Z,16.00
2023-02-08T09:46:32.206Z,16.00
2023-02-08T09:49:02.746Z,18.37
2023-02-08T09:52:05.782Z,17.53
2023-02-08T09:54:52.214Z,19.23
2023-02-08T09:57:24.072Z,19.20
2023-02-08T10:00:01.458Z,17.97
2023-02-08T10:02:33.969Z,18.67
2023-02-08T10:05:10.180Z,17.00
2023-02-08T10:07:40.202Z,18.40
2023-02-08T10:10:17.140Z,21.70
2023-02-08T10:24:48.268Z,20.67
2023-02-08T10:27:29.446Z,20.67
2023-02-08T10:30:03.367Z,15.03
2023-02-08T10:32:37.094Z,15.40
2023-02-08T10:35:38.451Z,19.47
2023-02-08T10:38:20.951Z,17.30
2023-02-08T10:40:52.350Z,18.10
2023-02-08T10:43:29.124Z,18.60
2023-02-08T10:46:02.824Z,18.03
2023-02-08T10:48:47.042Z,14.30
2023-02-08T10:51:17.880Z,16.00
2023-02-08T10:53:46.797Z,13.53
2023-02-08T10:56:39.489Z,15.47
2023-02-08T10:59:15.671Z,15.20
2023-02-08T11:01:46.930Z,16.00
2023-02-08T11:04:16.839Z,13.27
2023-02-08T11:06:45.928Z,12.37
2023-02-08T11:09:29.281Z,12.43
2023-02-08T11:12:00.127Z,15.17
2023-02-08T11:14:47.171Z,12.03
2023-02-08T11:17:31.373Z,17.90
2023-02-08T11:19:59.922Z,12.70
2023-02-08T11:22:34.395Z,14.07
2023-02-08T11:25:05.520Z,12.10
2023-02-08T11:27:34.947Z,11.90
2023-02-08T11:30:14.694Z,15.07
2023-02-08T11:32:46.328Z,16.33
2023-02-08T11:35:22.180Z,12.00
2023-02-08T11:37:50.679Z,10.23
2023-02-08T11:40:32.622Z,15.00
2023-02-08T11:43:01.322Z,13.83
2023-02-08T11:45:38.541Z,12.97
2023-02-08T11:48:29.542Z,12.63
2023-02-08T11:51:00.792Z,16.20
2023-02-08T11:53:39.640Z,13.68
2023-02-08T11:56:18.308Z,13.52
2023-02-08T11:59:02.258Z,15.23
2023-02-08T12:01:33.009Z,12.18
2023-02-08T12:04:04.213Z,11.05
2023-02-08T12:07:08.747Z,15.10
2023-02-08T12:09:39.385Z,11.50
2023-02-08T12:12:34.050Z,17.45
2023-02-08T12:15:04.386Z,15.45
2023-02-08T12:17:58.162Z,13.13
2023-02-08T12:20:47.060Z,15.02
2023-02-08T12:23:27.686Z,14.70
2023-02-08T12:26:16.296Z,14.00
2023-02-08T12:29:07.271Z,11.40
2023-02-08T12:31:59.506Z,12.63
2023-02-08T12:35:02.205Z,10.60
2023-02-08T12:38:17.257Z,12.00
2023-02-08T12:41:19.376Z,14.88
2023-02-08T12:44:07.852Z,30.08
2023-02-08T12:47:03.580Z,10.25
2023-02-08T12:50:13.765Z,11.10
2023-02-08T12:52:52.950Z,12.90
2023-02-08T12:55:31.900Z,12.60
2023-02-08T12:58:22.109Z,25.25
2023-02-08T13:00:52.317Z,11.63
2023-02-08T13:03:35.904Z,11.65
2023-02-08T13:06:07.030Z,12.15
2023-02-08T13:08:58.963Z,14.68
2023-02-08T13:11:32.136Z,16.15
2023-02-08T13:14:06.979Z,11.80
2023-02-08T13:16:46.020Z,15.35
2023-02-08T13:19:59.100Z,15.00
2023-02-08T13:22:30.552Z,12.45
2023-02-08T13:25:07.138Z,17.23
2023-02-08T13:27:35.479Z,21.80
2023-02-08T13:30:05.472Z,11.55
2023-02-08T13:32:47.034Z,13.57
2023-02-08T13:35:23.814Z,12.13
2023-02-08T13:38:04.818Z,11.52
2023-02-08T13:40:35.436Z,10.63
2023-02-08T13:43:35.185Z,10.82
2023-02-08T13:46:04.521Z,12.30
2023-02-08T13:48:48.013Z,10.50
2023-02-08T13:51:30.962Z,17.23
2023-02-08T13:53:58.600Z,11.82
2023-02-08T13:56:46.025Z,13.13
2023-02-08T13:59:34.919Z,14.73
2023-02-08T14:02:22.172Z,10.50
2023-02-08T14:05:20.089Z,9.95
2023-02-08T14:07:50.162Z,11.70
2023-02-08T14:10:31.874Z,10.75
2023-02-08T14:13:09.144Z,12.45
2023-02-08T14:15:39.414Z,13.95
2023-02-08T14:18:24.583Z,12.18
2023-02-08T14:21:04.740Z,10.88
2023-02-08T14:23:38.293Z,13.23
2023-02-08T14:26:15.648Z,10.70
2023-02-08T14:28:48.699Z,12.57
2023-02-08T14:31:17.825Z,11.65
2023-02-08T14:33:54.974Z,10.63
2023-02-08T14:36:35.962Z,15.32
2023-02-08T14:39:29.420Z,12.75
2023-02-08T14:42:05.529Z,12.43
2023-02-08T14:44:39.194Z,13.70
2023-02-08T14:47:25.098Z,11.63
2023-02-08T14:50:11.559Z,10.57
2023-02-08T14:52:43.319Z,13.90
2023-02-08T14:55:27.460Z,12.38
2023-02-08T14:57:58.019Z,10.82
2023-02-08T15:00:32.644Z,18.65
2023-02-08T15:03:01.489Z,13.30
2023-02-08T15:05:40.156Z,13.85
2023-02-08T15:08:07.802Z,14.97
2023-02-08T15:10:41.608Z,13.40
2023-02-08T15:13:19.769Z,14.20
2023-02-08T15:15:55.498Z,12.50
2023-02-08T15:18:27.672Z,11.93
2023-02-08T15:21:15.485Z,12.77
2023-02-08T15:23:43.117Z,13.07
2023-02-08T15:26:22.644Z,14.17
2023-02-08T15:28:50.807Z,17.63
2023-02-08T15:31:23.138Z,11.43
2023-02-08T15:33:53.815Z,15.17
2023-02-08T15:36:29.225Z,13.87
2023-02-08T15:39:02.167Z,12.23
2023-02-08T15:41:31.999Z,17.33
2023-02-08T15:44:20.028Z,12.97
2023-02-08T15:46:48.616Z,12.07
2023-02-08T15:49:21.433Z,14.17
2023-02-08T15:51:50.514Z,14.00
2023-02-08T15:54:19.218Z,15.37
2023-02-08T15:57:10.030Z,13.87
2023-02-08T15:59:40.130Z,17.23
2023-02-08T16:02:21.919Z,13.70
2023-02-08T16:04:49.966Z,13.53
2023-02-08T16:07:36.231Z,14.73
2023-02-08T16:10:06.152Z,14.73
2023-02-08T16:12:34.890Z,14.57
2023-02-08T16:15:03.851Z,14.90
2023-02-08T16:17:45.068Z,17.50
2023-02-08T16:20:35.893Z,15.70
2023-02-08T16:23:28.526Z,12.33
2023-02-08T16:26:19.059Z,13.67
2023-02-08T16:28:53.809Z,14.47
2023-02-08T16:31:26.691Z,14.77
2023-02-08T16:34:04.462Z,19.07
2023-02-08T16:39:19.158Z,16.10
2023-02-08T16:42:13.704Z,14.17
2023-02-08T16:45:15.364Z,12.53
2023-02-08T16:47:45.102Z,16.47
2023-02-08T16:50:21.881Z,13.10
2023-02-08T16:53:02.309Z,18.57
2023-02-08T16:55:33.414Z,13.13
2023-02-08T16:58:01.052Z,14.93
2023-02-08T17:00:34.398Z,15.30
2023-02-08T17:03:05.096Z,16.27
2023-02-08T17:05:37.975Z,17.00
2023-02-08T17:08:09.863Z,17.90
2023-02-08T17:10:39.298Z,16.43
2023-02-08T17:13:19.983Z,21.77
2023-02-08T17:15:50.431Z,14.40
2023-02-08T17:18:18.666Z,18.53
2023-02-08T17:20:48.130Z,16.53
2023-02-08T17:23:15.869Z,18.20
2023-02-08T17:25:44.223Z,18.27
2023-02-08T17:28:18.633Z,18.43
2023-02-08T17:30:48.309Z,16.77
2023-02-08T17:33:19.049Z,18.73
2023-02-08T17:35:49.023Z,17.03
2023-02-08T17:38:17.068Z,21.03
2023-02-08T17:40:44.856Z,18.00
2023-02-08T17:43:14.868Z,17.80
2023-02-08T17:45:44.693Z,15.37
2023-02-08T17:48:13.525Z,13.37
2023-02-08T17:50:50.702Z,16.10
2023-02-08T17:53:19.045Z,19.90
2023-02-08T17:55:48.130Z,16.53
2023-02-08T17:58:19.256Z,15.97
2023-02-08T18:00:46.954Z,15.73
2023-02-08T18:03:20.415Z,14.43
2023-02-08T18:05:57.635Z,20.27
2023-02-08T18:08:26.080Z,21.70
2023-02-08T18:10:53.838Z,14.80
2023-02-08T18:13:21.422Z,14.57
2023-02-08T18:15:49.105Z,18.63
2023-02-08T18:18:18.198Z,18.33
2023-02-08T18:20:46.556Z,19.37
2023-02-08T18:23:16.687Z,22.63
2023-02-08T18:25:44.570Z,17.67
2023-02-08T18:28:15.194Z,17.13
2023-02-08T18:30:43.081Z,17.63
2023-02-08T18:33:10.785Z,19.10
2023-02-08T18:35:38.371Z,22.27
2023-02-08T18:38:06.004Z,18.93
2023-02-08T18:40:36.183Z,17.50
2023-02-08T18:43:03.764Z,15.67
2023-02-08T18:45:31.356Z,16.47
2023-02-08T18:47:59.551Z,16.93
2023-02-08T18:50:28.911Z,16.77
2023-02-08T18:52:59.453Z,19.40
2023-02-08T18:55:27.081Z,19.40
2023-02-08T18:57:54.667Z,16.23
2023-02-08T19:00:22.451Z,14.23
2023-02-08T19:02:50.040Z,15.10
2023-02-08T19:05:17.753Z,17.97
2023-02-08T19:07:48.194Z,17.37
2023-02-08T19:10:15.768Z,16.67
2023-02-08T19:12:43.359Z,23.27
2023-02-08T19:15:11.050Z,20.93
2023-02-08T19:17:38.690Z,18.30
2023-02-08T19:20:06.898Z,17.60
2023-02-08T19:22:34.724Z,16.33
2023-02-08T19:25:02.439Z,27.53
2023-02-08T19:27:34.737Z,22.37
2023-02-08T19:30:03.276Z,19.47
2023-02-08T19:32:32.956Z,20.50
2023-02-08T19:35:02.937Z,18.47
2023-02-08T19:37:30.633Z,17.63
2023-02-08T19:40:01.079Z,21.67
2023-02-08T19:42:31.727Z,18.90
2023-02-08T19:45:00.088Z,15.93
2023-02-08T19:47:48.430Z,18.10
2023-02-08T19:50:17.365Z,15.30
2023-02-08T19:52:46.057Z,15.10
2023-02-08T19:55:13.743Z,18.50
2023-02-08T19:57:41.379Z,20.47
2023-02-08T20:00:22.615Z,16.20
2023-02-08T20:03:13.019Z,13.87
2023-02-08T20:05:48.477Z,13.23
2023-02-08T20:08:16.523Z,16.30
2023-02-08T20:10:46.443Z,17.77
2023-02-08T20:13:16.994Z,14.97
2023-02-08T20:15:45.148Z,20.40
2023-02-08T20:18:14.945Z,16.97
2023-02-08T20:20:43.471Z,18.57
2023-02-08T20:23:22.786Z,25.77
2023-02-08T20:25:50.525Z,22.00
2023-02-08T20:28:18.139Z,22.23
2023-02-08T20:30:45.855Z,21.03
2023-02-08T20:33:15.671Z,23.73
2023-02-08T20:35:44.284Z,19.40
2023-02-08T20:38:12.189Z,25.93
2023-02-08T20:40:39.918Z,17.60
2023-02-08T20:43:07.529Z,19.37
2023-02-08T20:45:35.146Z,20.47
2023-02-08T20:48:02.753Z,15.80
2023-02-08T20:50:33.055Z,16.80
2023-02-08T20:53:00.641Z,18.00
2023-02-08T20:55:31.028Z,19.77
2023-02-08T20:57:58.612Z,19.53
2023-02-08T21:00:36.784Z,17.10
2023-02-08T21:03:09.105Z,17.57
2023-02-08T21:05:36.667Z,18.70
2023-02-08T21:08:04.378Z,19.87
2023-02-08T21:10:35.192Z,21.73
2023-02-08T21:13:02.820Z,16.83
2023-02-08T21:15:30.960Z,18.73
2023-02-08T21:17:58.665Z,19.20
2023-02-08T21:20:26.359Z,17.43
2023-02-08T21:22:54.052Z,21.53
2023-02-08T21:25:21.725Z,16.87
2023-02-08T21:27:49.440Z,15.23
2023-02-08T21:30:17.268Z,18.90
2023-02-08T21:32:44.843Z,24.83
2023-02-08T21:35:12.415Z,19.03
2023-02-08T21:37:40.008Z,18.77
2023-02-08T21:40:07.860Z,18.97
2023-02-08T21:42:35.493Z,21.63
2023-02-08T21:45:03.207Z,19.57
2023-02-08T21:47:30.866Z,15.53
2023-02-08T21:50:21.172Z,19.47
2023-02-08T21:53:07.574Z,17.50
2023-02-08T21:55:35.174Z,26.37
2023-02-08T21:58:02.749Z,18.07
2023-02-08T22:00:30.398Z,16.83
2023-02-08T22:02:58.065Z,17.23
2023-02-08T22:05:25.663Z,16.53
2023-02-08T22:07:55.774Z,17.57
2023-02-08T22:10:26.678Z,22.67
2023-02-08T22:12:55.151Z,18.43
2023-02-08T22:15:25.863Z,18.30
2023-02-08T22:17:55.033Z,21.23
2023-02-08T22:20:23.327Z,21.13
2023-02-08T22:22:55.296Z,19.93
2023-02-08T22:25:25.009Z,29.53
2023-02-08T22:27:52.711Z,19.50
2023-02-08T22:30:20.974Z,26.57
2023-02-08T22:32:49.330Z,17.97
2023-02-08T22:35:18.355Z,17.80
2023-02-08T22:38:01.638Z,18.57
2023-02-08T22:40:29.247Z,20.20
2023-02-08T22:42:56.855Z,20.43
2023-02-08T22:45:24.478Z,27.87
2023-02-08T22:47:52.089Z,23.50
2023-02-08T22:50:19.745Z,19.90
2023-02-08T22:52:47.359Z,19.13
2023-02-08T22:55:15.005Z,20.57
2023-02-08T22:57:43.506Z,19.13
2023-02-08T23:00:14.463Z,21.17
2023-02-08T23:02:42.216Z,20.30
2023-02-08T23:05:09.884Z,20.88
2023-02-08T23:07:37.611Z,23.67
2023-02-08T23:10:05.438Z,22.93
2023-02-08T23:12:33.111Z,20.40
2023-02-08T23:15:01.071Z,22.20
2023-02-08T23:17:28.642Z,23.10
2023-02-08T23:19:56.317Z,22.03
2023-02-08T23:22:24.645Z,21.80
2023-02-08T23:24:52.253Z,21.23
2023-02-08T23:27:19.813Z,20.57
2023-02-08T23:29:47.393Z,21.07
2023-02-08T23:32:15.069Z,19.30
2023-02-08T23:34:42.708Z,19.13
2023-02-08T23:37:10.297Z,23.73
2023-02-08T23:39:37.891Z,19.80
2023-02-08T23:42:25.235Z,20.27
2023-02-08T23:45:00.276Z,20.47
2023-02-08T23:47:29.388Z,19.97
2023-02-08T23:49:57.002Z,18.87
2023-02-08T23:52:24.727Z,19.63
2023-02-08T23:54:53.463Z,18.43
2023-02-08T23:57:21.108Z,17.97
2023-02-08T23:59:51.303Z,25.53
